Time;durP1;ratioP1;P1;durP2;ratioP2;P2;SDS_P1;SDS_P2;PMS_P1;PMS_P2;Temp;Humidity;BMP_temperature;BMP_pressure;BME280_temperature;BME280_humidity;BME280_pressure;Samples;Min_cycle;Max_cycle;Signal;HPM_P1;HPM_P2
2022/08/20 00:00:53;;;;;;;13.38;6.85;;;18.90;99.90;;;;;;5099908;28;20044;-48
2022/08/20 00:03:28;;;;;;;14.82;6.97;;;19.00;99.90;;;;;;5100755;28;20091;-49
2022/08/20 00:06:07;;;;;;;13.45;6.80;;;18.90;99.90;;;;;;5100959;28;20036;-48
2022/08/20 00:08:33;;;;;;;11.68;6.10;;;19.00;99.90;;;;;;5099641;28;20123;-48
2022/08/20 00:10:59;;;;;;;16.30;6.88;;;19.00;99.90;;;;;;5100815;28;20126;-49
2022/08/20 00:13:31;;;;;;;11.05;6.55;;;19.00;99.90;;;;;;5099548;28;20048;-51
2022/08/20 00:15:56;;;;;;;10.88;6.05;;;19.10;99.90;;;;;;5099241;28;20075;-47
2022/08/20 00:18:22;;;;;;;13.60;6.68;;;18.90;99.90;;;;;;5099918;28;20036;-48
2022/08/20 00:20:51;;;;;;;11.32;6.97;;;18.90;99.90;;;;;;5099895;28;20059;-50
2022/08/20 00:23:17;;;;;;;15.48;6.57;;;18.90;99.90;;;;;;5100571;28;20036;-49
2022/08/20 00:25:44;;;;;;;13.38;6.95;;;18.90;99.90;;;;;;5099552;28;20403;-48
2022/08/20 00:28:11;;;;;;;14.18;6.43;;;18.90;99.90;;;;;;5100342;28;20032;-50
2022/08/20 00:30:39;;;;;;;12.77;6.97;;;18.90;99.90;;;;;;5099157;28;20040;-50
2022/08/20 00:33:08;;;;;;;13.10;7.18;;;18.80;99.90;;;;;;5098885;28;20546;-50
2022/08/20 00:35:38;;;;;;;13.10;7.18;;;18.70;99.90;;;;;;5100134;28;20071;-49
2022/08/20 00:38:05;;;;;;;14.30;7.05;;;18.70;99.90;;;;;;5099507;28;20051;-51
2022/08/20 00:40:56;;;;;;;16.75;8.40;;;18.70;99.90;;;;;;5100082;28;20084;-55
2022/08/20 00:43:38;;;;;;;12.68;6.55;;;18.70;99.90;;;;;;5099069;28;20028;-51
2022/08/20 00:46:05;;;;;;;;;;;18.60;99.90;;;;;;5100758;28;20040;-51
2022/08/20 00:48:33;;;;;;;15.02;7.22;;;18.60;99.90;;;;;;5100048;28;19927;-49
2022/08/20 00:51:28;;;;;;;13.27;6.70;;;18.50;99.90;;;;;;5097656;28;20120;-49
2022/08/20 00:53:59;;;;;;;13.55;6.95;;;18.60;99.90;;;;;;5100145;28;20052;-52
2022/08/20 00:56:25;;;;;;;12.50;6.83;;;18.60;99.90;;;;;;5098641;28;20040;-48
2022/08/20 00:58:51;;;;;;;13.65;7.20;;;18.50;99.90;;;;;;5099812;28;20355;-51
2022/08/20 01:01:18;;;;;;;15.45;7.43;;;18.50;99.90;;;;;;5099408;28;20503;-50
2022/08/20 01:03:44;;;;;;;15.13;7.60;;;18.50;99.90;;;;;;5099133;28;20070;-52
2022/08/20 01:06:12;;;;;;;11.88;6.95;;;18.40;99.90;;;;;;5098339;28;20391;-51
2022/08/20 01:08:39;;;;;;;14.30;7.82;;;18.40;99.90;;;;;;5097027;28;20044;-52
2022/08/20 01:11:08;;;;;;;12.90;7.60;;;18.30;99.90;;;;;;5099430;28;20055;-51
2022/08/20 01:13:37;;;;;;;16.25;8.55;;;18.20;99.90;;;;;;5098316;28;20159;-50
2022/08/20 01:16:08;;;;;;;12.63;8.02;;;18.10;99.90;;;;;;5099238;28;20070;-49
2022/08/20 01:18:37;;;;;;;16.42;8.63;;;18.00;99.90;;;;;;5099186;28;20040;-50
2022/08/20 01:21:06;;;;;;;13.55;8.55;;;18.10;99.90;;;;;;5097317;28;20036;-48
2022/08/20 01:23:44;;;;;;;16.50;8.73;;;18.10;99.90;;;;;;5099560;28;20028;-50
2022/08/20 01:26:18;;;;;;;16.80;8.70;;;18.00;99.90;;;;;;5098308;28;20822;-51
2022/08/20 01:28:49;;;;;;;17.02;8.40;;;17.90;99.90;;;;;;5099286;28;20666;-50
2022/08/20 01:31:30;;;;;;;17.33;8.88;;;17.80;99.90;;;;;;5099070;28;20238;-49
2022/08/20 01:33:57;;;;;;;14.60;8.13;;;17.70;99.90;;;;;;5098787;28;20048;-49
2022/08/20 01:36:30;;;;;;;13.63;8.05;;;17.70;99.90;;;;;;5099543;28;20048;-48
2022/08/20 01:38:58;;;;;;;14.57;7.82;;;17.70;99.90;;;;;;5097911;28;20039;-49
2022/08/20 01:41:42;;;;;;;18.55;7.90;;;17.70;99.90;;;;;;5099352;28;20032;-51
2022/08/20 01:44:08;;;;;;;13.77;7.22;;;17.60;99.90;;;;;;5098991;28;20520;-48
2022/08/20 01:46:37;;;;;;;12.15;7.57;;;17.60;99.90;;;;;;5098791;28;20048;-49
2022/08/20 01:49:21;;;;;;;16.60;7.88;;;17.60;99.90;;;;;;5099653;28;20069;-51
2022/08/20 01:51:48;;;;;;;14.77;7.88;;;17.60;99.90;;;;;;5098103;28;20044;-49
2022/08/20 01:54:14;;;;;;;16.35;8.35;;;17.50;99.90;;;;;;5099462;28;20043;-49
2022/08/20 01:57:05;;;;;;;13.88;7.90;;;17.50;99.90;;;;;;5098298;28;20114;-48
2022/08/20 01:59:30;;;;;;;16.45;8.40;;;17.40;99.90;;;;;;5098364;28;20457;-49
2022/08/20 02:01:58;;;;;;;14.18;7.45;;;17.30;99.90;;;;;;5097593;28;20073;-48
2022/08/20 02:04:25;;;;;;;13.63;7.32;;;17.30;99.90;;;;;;5097908;28;20040;-48
2022/08/20 02:06:58;;;;;;;17.20;7.32;;;17.30;99.90;;;;;;5098952;28;20115;-51
2022/08/20 02:09:29;;;;;;;17.35;8.05;;;17.20;99.90;;;;;;5100934;28;20480;-51
2022/08/20 02:11:56;;;;;;;15.95;7.00;;;17.20;99.90;;;;;;5102605;28;20048;-50
2022/08/20 02:14:22;;;;;;;12.38;7.13;;;17.20;99.90;;;;;;5102641;28;20073;-51
2022/08/20 02:16:49;;;;;;;16.90;7.18;;;17.10;99.90;;;;;;5101744;28;20067;-49
2022/08/20 02:19:30;;;;;;;12.40;6.68;;;17.10;99.90;;;;;;5103037;28;20024;-49
2022/08/20 02:21:59;;;;;;;13.00;6.70;;;17.10;99.90;;;;;;5101301;28;20044;-51
2022/08/20 02:24:25;;;;;;;13.93;6.20;;;17.10;99.90;;;;;;5102897;28;20407;-51
2022/08/20 02:26:51;;;;;;;13.98;6.80;;;17.10;99.90;;;;;;5102072;28;20072;-48
2022/08/20 02:29:17;;;;;;;12.35;6.05;;;17.20;99.90;;;;;;5102255;28;20044;-48
2022/08/20 02:31:44;;;;;;;13.48;6.32;;;17.20;99.90;;;;;;5102517;28;20092;-48
2022/08/20 02:34:13;;;;;;;12.85;6.13;;;17.10;99.90;;;;;;5101977;28;20156;-49
2022/08/20 02:36:42;;;;;;;13.80;6.05;;;17.10;99.90;;;;;;5102545;28;20040;-48
2022/08/20 02:39:10;;;;;;;14.55;6.43;;;17.00;99.90;;;;;;5100992;28;20036;-49
2022/08/20 02:41:37;;;;;;;12.07;5.30;;;17.00;99.90;;;;;;5102200;28;20150;-49
2022/08/20 02:44:05;;;;;;;10.73;5.68;;;16.90;99.90;;;;;;5101952;28;20096;-50
2022/08/20 02:46:31;;;;;;;16.25;6.45;;;16.90;99.90;;;;;;5100298;28;20082;-50
2022/08/20 02:48:57;;;;;;;13.60;5.95;;;16.80;99.90;;;;;;5102430;28;20036;-48
2022/08/20 02:51:23;;;;;;;10.40;6.00;;;16.70;99.90;;;;;;5100916;28;20052;-48
2022/08/20 02:53:49;;;;;;;11.20;6.38;;;16.80;99.90;;;;;;5102241;28;20060;-49
2022/08/20 02:56:15;;;;;;;13.45;6.28;;;16.70;99.90;;;;;;5100945;28;20044;-47
2022/08/20 02:58:41;;;;;;;10.18;5.72;;;16.70;99.90;;;;;;5102162;28;20492;-48
2022/08/20 03:01:14;;;;;;;15.85;5.90;;;16.80;99.90;;;;;;5101755;28;20047;-48
2022/08/20 03:03:41;;;;;;;11.90;5.75;;;16.70;99.90;;;;;;5101470;28;20047;-49
2022/08/20 03:06:09;;;;;;;12.20;5.50;;;16.70;99.90;;;;;;5102186;28;20044;-51
2022/08/20 03:08:35;;;;;;;16.08;5.40;;;16.70;99.90;;;;;;5100585;28;20040;-48
2022/08/20 03:11:02;;;;;;;13.25;5.30;;;16.80;99.90;;;;;;5101471;28;20086;-49
2022/08/20 03:13:28;;;;;;;12.05;4.88;;;16.80;99.90;;;;;;5100597;28;20558;-48
2022/08/20 03:15:59;;;;;;;12.20;4.93;;;16.80;99.90;;;;;;5101996;28;20039;-49
2022/08/20 03:18:28;;;;;;;15.10;5.30;;;16.80;99.90;;;;;;5101369;28;20039;-48
2022/08/20 03:20:54;;;;;;;15.82;5.78;;;16.80;99.90;;;;;;5101031;28;20496;-48
2022/08/20 03:23:21;;;;;;;14.20;4.78;;;16.90;99.90;;;;;;5100567;28;20060;-50
2022/08/20 03:25:48;;;;;;;9.73;4.30;;;16.90;99.90;;;;;;5100511;28;20040;-49
2022/08/20 03:28:14;;;;;;;9.57;4.70;;;16.90;99.90;;;;;;5100027;28;20038;-49
2022/08/20 03:30:40;;;;;;;9.95;3.70;;;16.90;99.90;;;;;;5100240;28;20500;-50
2022/08/20 03:33:07;;;;;;;15.20;4.47;;;16.80;99.90;;;;;;5101513;28;20764;-51
2022/08/20 03:35:33;;;;;;;11.32;3.90;;;16.70;99.90;;;;;;5101288;28;20044;-51
2022/08/20 03:37:59;;;;;;;15.00;5.07;;;16.70;99.90;;;;;;5100730;28;20040;-49
2022/08/20 03:40:30;;;;;;;12.70;4.18;;;16.70;99.90;;;;;;5101308;28;20092;-50
2022/08/20 03:42:57;;;;;;;11.18;3.35;;;16.80;99.90;;;;;;5100319;28;20544;-49
2022/08/20 03:45:24;;;;;;;14.32;3.50;;;16.70;99.90;;;;;;5101464;28;20044;-51
2022/08/20 03:47:51;;;;;;;11.02;3.28;;;16.70;99.90;;;;;;5098944;28;20062;-49
2022/08/20 03:50:19;;;;;;;12.18;4.20;;;16.60;99.90;;;;;;5100703;28;20165;-49
2022/08/20 03:52:44;;;;;;;11.13;3.53;;;16.70;99.90;;;;;;5101074;28;20080;-52
2022/08/20 03:55:10;;;;;;;11.02;3.97;;;16.80;99.90;;;;;;5100231;28;20044;-49
2022/08/20 03:57:44;;;;;;;8.35;3.30;;;16.80;99.90;;;;;;5099905;28;20048;-49
2022/08/20 04:00:12;;;;;;;12.55;3.38;;;16.80;99.90;;;;;;5099909;28;20715;-48
2022/08/20 04:02:38;;;;;;;11.30;3.47;;;16.80;99.90;;;;;;5100719;28;20099;-51
2022/08/20 04:05:04;;;;;;;11.43;4.28;;;16.80;99.90;;;;;;5099856;28;20036;-50
2022/08/20 04:07:30;;;;;;;12.25;3.45;;;16.90;99.90;;;;;;5100556;28;20044;-48
2022/08/20 04:09:56;;;;;;;9.57;3.30;;;16.90;99.90;;;;;;5100246;28;20044;-50
2022/08/20 04:12:23;;;;;;;7.10;3.03;;;16.90;99.90;;;;;;5099812;28;20040;-49
2022/08/20 04:14:50;;;;;;;8.77;3.45;;;16.80;99.90;;;;;;5100592;28;20086;-48
2022/08/20 04:17:17;;;;;;;11.38;3.90;;;16.80;99.90;;;;;;5097549;28;20040;-48
2022/08/20 04:19:46;;;;;;;10.52;3.10;;;16.90;99.90;;;;;;5100550;28;20043;-49
2022/08/20 04:22:15;;;;;;;10.13;3.70;;;16.80;99.90;;;;;;5099418;28;20055;-51
2022/08/20 04:24:41;;;;;;;9.13;3.55;;;16.80;99.90;;;;;;5100197;28;20052;-49
2022/08/20 04:27:09;;;;;;;9.68;3.60;;;16.70;99.90;;;;;;5100274;28;20039;-48
2022/08/20 04:29:35;;;;;;;11.10;5.10;;;16.70;99.90;;;;;;5099651;28;20071;-49
2022/08/20 04:32:03;;;;;;;10.52;4.10;;;16.60;99.90;;;;;;5098455;28;20048;-49
2022/08/20 04:34:29;;;;;;;11.38;4.82;;;16.60;99.90;;;;;;5099197;28;20187;-49
2022/08/20 04:36:55;;;;;;;11.10;3.45;;;16.70;99.90;;;;;;5099730;28;20626;-47
2022/08/20 04:39:20;;;;;;;9.27;3.40;;;16.60;99.90;;;;;;5099047;28;20048;-49
2022/08/20 04:41:46;;;;;;;10.43;4.25;;;16.60;99.90;;;;;;5099908;28;20068;-48
2022/08/20 04:44:12;;;;;;;11.05;4.40;;;16.60;99.90;;;;;;5099864;28;20044;-48
2022/08/20 04:46:38;;;;;;;11.95;3.97;;;16.50;99.90;;;;;;5099221;28;20056;-48
2022/08/20 04:49:05;;;;;;;10.57;4.13;;;16.40;99.90;;;;;;5081982;28;20042;-49
2022/08/20 04:51:32;;;;;;;10.50;4.60;;;16.50;99.90;;;;;;5098615;28;20044;-49
2022/08/20 04:53:58;;;;;;;12.57;5.00;;;16.50;99.90;;;;;;5099892;28;20051;-51
2022/08/20 04:56:33;;;;;;;10.40;4.03;;;16.50;99.90;;;;;;5099030;28;20028;-51
2022/08/20 04:59:00;;;;;;;9.98;4.10;;;16.60;99.90;;;;;;5099362;28;20044;-48
2022/08/20 05:01:27;;;;;;;11.43;3.80;;;16.50;99.90;;;;;;5099882;28;20074;-51
2022/08/20 05:03:54;;;;;;;10.75;4.20;;;16.40;99.90;;;;;;5098968;28;20032;-49
2022/08/20 05:06:22;;;;;;;10.00;4.30;;;16.40;99.90;;;;;;5099979;28;20036;-51
2022/08/20 05:08:48;;;;;;;13.18;5.10;;;16.40;99.90;;;;;;5098330;28;20269;-49
2022/08/20 05:11:13;;;;;;;8.32;3.90;;;16.30;99.90;;;;;;5098302;28;20055;-51
2022/08/20 05:13:39;;;;;;;12.82;5.75;;;16.40;99.90;;;;;;5098664;28;20044;-51
2022/08/20 05:16:05;;;;;;;11.60;3.97;;;16.40;99.90;;;;;;5097908;28;20052;-49
2022/08/20 05:18:32;;;;;;;10.25;4.18;;;16.30;99.90;;;;;;5099531;28;20040;-48
2022/08/20 05:21:04;;;;;;;12.35;4.30;;;16.40;99.90;;;;;;5098867;28;20161;-51
2022/08/20 05:23:30;;;;;;;9.75;3.70;;;16.40;99.90;;;;;;5099527;28;20073;-51
2022/08/20 05:25:56;;;;;;;8.15;3.63;;;16.30;99.90;;;;;;5098321;28;20115;-51
2022/08/20 05:28:31;;;;;;;12.27;4.00;;;16.30;99.90;;;;;;5099528;28;20040;-51
2022/08/20 05:30:59;;;;;;;10.63;4.03;;;16.30;99.90;;;;;;5080498;28;20083;-48
2022/08/20 05:33:25;;;;;;;8.70;4.05;;;16.30;99.90;;;;;;5099094;28;20055;-49
2022/08/20 05:35:52;;;;;;;10.73;3.38;;;16.30;99.90;;;;;;5099641;28;20088;-52
2022/08/20 05:38:22;;;;;;;10.82;3.83;;;16.30;99.90;;;;;;5098194;28;20122;-50
2022/08/20 05:40:49;;;;;;;11.45;4.53;;;16.30;99.90;;;;;;5097732;28;20044;-50
2022/08/20 05:43:15;;;;;;;10.25;3.70;;;16.30;99.90;;;;;;5099510;28;20061;-48
2022/08/20 05:45:42;;;;;;;8.98;3.35;;;16.40;99.90;;;;;;5103470;28;20052;-48
2022/08/20 05:48:11;;;;;;;10.30;3.80;;;16.40;99.90;;;;;;5098332;28;20881;-48
2022/08/20 05:50:41;;;;;;;11.20;3.85;;;16.40;99.90;;;;;;5099164;28;20060;-48
2022/08/20 05:53:07;;;;;;;10.32;3.33;;;16.60;99.90;;;;;;5099966;28;20036;-49
2022/08/20 05:55:33;;;;;;;9.93;3.10;;;16.70;99.90;;;;;;5098969;28;20089;-48
2022/08/20 05:58:01;;;;;;;10.13;3.75;;;16.90;99.90;;;;;;5099622;28;20052;-51
2022/08/20 06:00:28;;;;;;;9.35;3.15;;;17.00;99.90;;;;;;5098500;28;20048;-49
2022/08/20 06:05:39;;;;;;;10.07;3.00;;;17.20;99.90;;;;;;5099803;28;20089;-49
2022/08/20 06:08:07;;;;;;;13.98;2.80;;;17.40;99.90;;;;;;5099273;28;20492;-52
2022/08/20 06:10:33;;;;;;;10.25;3.65;;;17.40;99.90;;;;;;5099495;28;20462;-49
2022/08/20 06:12:59;;;;;;;9.93;2.70;;;17.40;99.90;;;;;;5097352;28;20050;-52
2022/08/20 06:15:24;;;;;;;11.07;2.83;;;17.50;99.90;;;;;;5099636;28;20116;-51
2022/08/20 06:17:50;;;;;;;9.50;2.55;;;17.60;99.90;;;;;;5098693;28;20086;-49
2022/08/20 06:20:16;;;;;;;8.70;3.17;;;17.70;99.90;;;;;;5099286;28;20084;-51
2022/08/20 06:22:41;;;;;;;9.68;2.30;;;17.80;99.90;;;;;;5099014;28;20048;-51
2022/08/20 06:25:09;;;;;;;10.05;2.67;;;17.90;99.90;;;;;;5098750;28;20096;-49
2022/08/20 06:27:38;;;;;;;11.50;2.60;;;18.00;99.90;;;;;;5099637;28;20040;-50
2022/08/20 06:30:06;;;;;;;9.30;2.30;;;18.20;99.90;;;;;;5097199;28;20056;-51
2022/08/20 06:32:32;;;;;;;8.98;2.10;;;18.30;99.90;;;;;;5099321;28;20051;-49
2022/08/20 06:35:00;;;;;;;11.35;2.40;;;18.10;99.90;;;;;;5096836;28;20103;-48
2022/08/20 06:37:28;;;;;;;9.25;2.10;;;18.20;99.90;;;;;;5099117;28;20537;-49
2022/08/20 06:39:54;;;;;;;9.05;2.25;;;18.30;99.90;;;;;;5097860;28;20048;-49
2022/08/20 06:42:20;;;;;;;9.80;2.70;;;18.30;99.90;;;;;;5097178;28;20056;-48
2022/08/20 06:44:49;;;;;;;10.43;1.98;;;18.40;99.90;;;;;;5098059;28;20043;-49
2022/08/20 06:47:16;;;;;;;7.32;2.50;;;18.40;99.90;;;;;;5097584;28;20044;-48
2022/08/20 06:49:42;;;;;;;9.63;2.85;;;18.50;99.90;;;;;;5099024;28;20056;-52
2022/08/20 06:52:08;;;;;;;9.63;2.40;;;18.50;99.90;;;;;;5097954;28;20078;-49
2022/08/20 06:54:34;;;;;;;7.25;1.90;;;18.60;99.90;;;;;;5096926;28;20040;-48
2022/08/20 06:57:03;;;;;;;6.32;2.17;;;18.40;99.90;;;;;;5097902;28;20056;-49
2022/08/20 06:59:28;;;;;;;8.20;2.50;;;18.60;99.90;;;;;;5097979;28;20052;-48
2022/08/20 07:01:55;;;;;;;6.63;1.80;;;18.70;99.90;;;;;;5098878;28;20075;-49
2022/08/20 07:04:23;;;;;;;9.30;2.20;;;18.70;99.90;;;;;;5097897;28;20048;-51
2022/08/20 07:06:50;;;;;;;6.32;1.83;;;18.70;99.90;;;;;;5098992;28;20060;-49
2022/08/20 07:09:17;;;;;;;7.07;1.65;;;18.80;99.90;;;;;;5097724;28;20149;-51
2022/08/20 07:11:43;;;;;;;8.02;1.63;;;18.90;99.90;;;;;;5098021;28;20492;-48
2022/08/20 07:14:09;;;;;;;8.10;1.92;;;19.00;99.90;;;;;;5098598;28;20518;-48
2022/08/20 07:16:35;;;;;;;9.70;1.50;;;19.10;99.90;;;;;;5097850;28;20040;-49
2022/08/20 07:19:00;;;;;;;10.73;1.90;;;19.10;99.90;;;;;;5098972;28;20745;-49
2022/08/20 07:21:26;;;;;;;6.00;1.40;;;19.30;99.90;;;;;;5097704;28;20835;-50
2022/08/20 07:23:52;;;;;;;8.50;1.73;;;19.40;99.90;;;;;;5098101;28;20404;-49
2022/08/20 07:26:18;;;;;;;9.45;1.65;;;19.40;99.90;;;;;;5097300;28;20047;-49
2022/08/20 07:28:44;;;;;;;6.72;1.77;;;19.40;99.90;;;;;;5094222;28;20087;-49
2022/08/20 07:33:54;;;;;;;5.72;1.80;;;19.50;99.90;;;;;;5086867;28;20094;-49
2022/08/20 07:36:20;;;;;;;7.03;1.38;;;19.60;99.90;;;;;;5087115;28;21458;-48
2022/08/20 07:38:47;;;;;;;5.80;1.48;;;19.70;99.90;;;;;;5089601;28;20074;-50
2022/08/20 07:41:13;;;;;;;9.32;1.52;;;19.70;99.90;;;;;;5087856;28;20129;-53
2022/08/20 07:43:40;;;;;;;6.03;1.45;;;19.80;99.90;;;;;;5085894;28;20122;-50
2022/08/20 07:46:07;;;;;;;7.88;1.58;;;19.80;99.90;;;;;;5086135;28;20391;-49
2022/08/20 07:48:40;;;;;;;10.05;1.63;;;19.80;99.90;;;;;;5086969;28;20040;-49
2022/08/20 07:51:08;;;;;;;5.90;1.48;;;20.00;99.90;;;;;;5085180;28;20052;-50
2022/08/20 07:53:36;;;;;;;8.23;1.70;;;20.00;99.90;;;;;;5087364;28;20032;-50
2022/08/20 07:56:04;;;;;;;10.00;1.55;;;20.00;99.90;;;;;;5086584;28;20047;-50
2022/08/20 07:58:30;;;;;;;9.30;1.85;;;20.10;99.90;;;;;;5086505;28;20040;-49
2022/08/20 08:00:56;;;;;;;8.00;1.80;;;20.10;99.90;;;;;;5097128;28;20062;-49
2022/08/20 08:03:21;;;;;;;8.02;1.60;;;20.20;99.90;;;;;;5097140;28;20105;-48
2022/08/20 08:05:50;;;;;;;8.93;1.40;;;20.30;99.90;;;;;;5095606;28;20044;-50
2022/08/20 08:08:21;;;;;;;7.03;1.40;;;20.30;99.90;;;;;;5096951;28;20059;-48
2022/08/20 08:10:48;;;;;;;7.10;1.40;;;20.30;99.90;;;;;;5096731;28;20051;-51
2022/08/20 08:13:14;;;;;;;11.68;1.63;;;20.40;99.90;;;;;;5096276;28;20047;-50
2022/08/20 08:15:45;;;;;;;10.88;1.98;;;20.40;99.90;;;;;;5097606;28;20622;-49
2022/08/20 08:18:20;;;;;;;11.25;2.03;;;20.40;99.90;;;;;;5084692;28;20047;-51
2022/08/20 08:20:49;;;;;;;9.02;1.50;;;20.40;99.90;;;;;;5076469;28;20044;-49
2022/08/20 08:23:15;;;;;;;9.93;1.30;;;20.50;99.90;;;;;;5076882;28;20083;-49
2022/08/20 08:25:41;;;;;;;7.50;1.60;;;20.50;99.90;;;;;;5075970;28;20036;-51
2022/08/20 08:28:11;;;;;;;8.27;1.30;;;20.60;99.90;;;;;;5077052;28;20055;-52
2022/08/20 08:30:39;;;;;;;8.07;2.03;;;20.50;99.90;;;;;;5075906;28;20507;-49
2022/08/20 08:35:50;;;;;;;9.50;1.30;;;20.70;99.90;;;;;;5076565;28;20079;-49
2022/08/20 08:38:16;;;;;;;7.63;1.50;;;20.50;99.90;;;;;;5084904;28;20048;-49
2022/08/20 08:40:42;;;;;;;6.75;1.40;;;20.60;99.90;;;;;;5096809;28;20507;-52
2022/08/20 08:43:10;;;;;;;8.23;1.60;;;20.80;99.90;;;;;;5095992;28;20048;-48
2022/08/20 08:45:44;;;;;;;7.85;1.30;;;21.00;99.90;;;;;;5097139;28;20083;-48
2022/08/20 08:48:15;;;;;;;7.05;1.80;;;20.90;99.90;;;;;;5096141;28;20110;-48
2022/08/20 08:50:44;;;;;;;7.82;1.48;;;21.00;99.90;;;;;;5095883;28;20090;-49
2022/08/20 08:53:20;;;;;;;7.25;1.33;;;21.00;99.90;;;;;;5096953;28;20491;-49
2022/08/20 08:55:47;;;;;;;7.10;1.67;;;21.00;99.90;;;;;;5095588;28;20047;-50
2022/08/20 08:58:14;;;;;;;8.55;1.80;;;21.10;99.90;;;;;;5096450;28;20060;-49
2022/08/20 09:00:39;;;;;;;8.15;2.00;;;21.10;99.90;;;;;;5095844;28;20055;-50
2022/08/20 09:03:15;;;;;;;7.82;1.50;;;21.20;99.90;;;;;;5096384;28;20117;-48
2022/08/20 09:05:49;;;;;;;9.40;1.77;;;21.30;99.90;;;;;;5096604;28;20051;-48
2022/08/20 09:08:20;;;;;;;10.18;1.70;;;21.40;99.90;;;;;;5095704;28;20052;-48
2022/08/20 09:10:46;;;;;;;5.25;1.30;;;21.30;99.90;;;;;;5095940;28;20052;-48
2022/08/20 09:13:12;;;;;;;11.57;1.77;;;21.40;99.90;;;;;;5095397;28;20036;-49
2022/08/20 09:15:37;;;;;;;8.18;1.60;;;21.50;99.90;;;;;;5096530;28;20435;-50
2022/08/20 09:18:03;;;;;;;6.50;1.63;;;21.80;99.90;;;;;;5087844;28;20044;-49
2022/08/20 09:20:30;;;;;;;8.23;1.70;;;21.70;99.90;;;;;;5085498;28;20070;-50
2022/08/20 09:22:55;;;;;;;9.30;1.58;;;21.30;99.90;;;;;;5085149;28;20057;-50
2022/08/20 09:25:21;;;;;;;8.73;1.58;;;21.20;99.90;;;;;;5083943;28;20041;-49
2022/08/20 09:27:47;;;;;;;10.63;1.75;;;21.40;99.90;;;;;;5086194;28;20032;-50
2022/08/20 09:30:14;;;;;;;7.07;1.35;;;21.30;99.90;;;;;;5085131;28;20046;-50
2022/08/20 09:32:40;;;;;;;7.63;1.88;;;21.00;99.90;;;;;;5085489;28;20048;-48
2022/08/20 09:35:07;;;;;;;5.20;1.17;;;21.00;99.90;;;;;;5085790;28;20064;-50
2022/08/20 09:37:33;;;;;;;8.90;1.60;;;21.30;99.90;;;;;;5087909;28;20048;-49
2022/08/20 09:39:59;;;;;;;8.18;1.70;;;21.60;99.90;;;;;;5086219;28;20049;-51
2022/08/20 09:42:28;;;;;;;7.60;1.45;;;21.70;99.90;;;;;;5077329;28;20146;-50
2022/08/20 09:44:54;;;;;;;6.32;1.25;;;21.20;99.90;;;;;;5084975;28;20050;-48
2022/08/20 09:47:20;;;;;;;8.27;1.48;;;21.00;99.90;;;;;;5084419;28;20044;-49
2022/08/20 09:49:46;;;;;;;8.73;2.10;;;21.00;99.90;;;;;;5084315;28;20060;-49
2022/08/20 09:52:31;;;;;;;6.80;1.65;;;21.30;99.90;;;;;;5092054;28;20051;-49
2022/08/20 09:55:01;;;;;;;8.20;1.40;;;21.50;99.90;;;;;;5096902;28;20052;-51
2022/08/20 09:57:27;;;;;;;8.52;1.80;;;21.80;99.90;;;;;;5099260;28;20092;-49
2022/08/20 09:59:57;;;;;;;9.48;1.88;;;21.80;99.90;;;;;;5097895;28;20055;-48
2022/08/20 10:02:23;;;;;;;7.57;1.52;;;21.80;99.90;;;;;;5098883;28;20044;-48
2022/08/20 10:04:49;;;;;;;8.38;1.60;;;21.80;99.90;;;;;;5097790;28;20048;-48
2022/08/20 10:07:15;;;;;;;7.97;1.70;;;22.10;99.90;;;;;;5098677;28;20048;-49
2022/08/20 10:09:40;;;;;;;8.88;1.70;;;22.20;99.90;;;;;;5098528;28;20056;-48
2022/08/20 10:12:06;;;;;;;6.90;1.70;;;22.40;99.90;;;;;;5097997;28;20040;-49
2022/08/20 10:14:32;;;;;;;7.10;1.80;;;22.60;99.90;;;;;;5099142;28;20529;-50
2022/08/20 10:17:00;;;;;;;9.30;1.88;;;22.60;99.90;;;;;;5095585;28;20074;-51
2022/08/20 10:19:27;;;;;;;9.05;1.75;;;22.50;99.90;;;;;;5078602;28;20036;-49
2022/08/20 10:21:53;;;;;;;10.68;1.80;;;22.20;99.90;;;;;;5077168;28;20045;-48
2022/08/20 10:24:19;;;;;;;9.65;2.15;;;21.90;99.90;;;;;;5078405;28;20043;-50
2022/08/20 10:26:46;;;;;;;7.35;2.28;;;21.60;99.90;;;;;;5076834;28;20056;-49
2022/08/20 10:29:12;;;;;;;7.03;2.00;;;21.40;99.90;;;;;;5079162;28;20053;-52
2022/08/20 10:31:38;;;;;;;7.88;1.67;;;21.20;99.90;;;;;;5082060;28;20041;-48
2022/08/20 10:34:03;;;;;;;9.18;1.77;;;21.20;99.90;;;;;;5081259;28;20049;-50
2022/08/20 10:36:29;;;;;;;11.23;2.47;;;21.20;99.90;;;;;;5081913;28;20044;-51
2022/08/20 10:38:55;;;;;;;11.20;2.10;;;21.10;99.90;;;;;;5095217;28;20056;-49
2022/08/20 10:41:21;;;;;;;9.40;2.35;;;21.20;99.90;;;;;;5102452;28;20089;-51
2022/08/20 10:43:47;;;;;;;8.52;1.83;;;21.20;99.90;;;;;;5096430;28;20040;-50
2022/08/20 10:46:13;;;;;;;10.50;2.65;;;21.20;99.90;;;;;;5092178;28;20123;-50
2022/08/20 10:48:38;;;;;;;7.82;2.10;;;21.40;99.90;;;;;;5088940;28;20055;-50
2022/08/20 10:51:04;;;;;;;7.32;2.08;;;21.70;99.90;;;;;;5089868;28;20059;-48
2022/08/20 10:53:30;;;;;;;10.02;2.03;;;21.70;99.90;;;;;;5090838;28;20114;-48
2022/08/20 10:55:57;;;;;;;7.68;1.60;;;21.80;99.90;;;;;;5091342;28;20051;-51
2022/08/20 10:58:24;;;;;;;9.63;2.28;;;21.80;99.90;;;;;;5090827;28;20044;-48
2022/08/20 11:00:51;;;;;;;8.55;1.70;;;21.80;99.90;;;;;;5090627;28;20101;-48
2022/08/20 11:03:17;;;;;;;13.40;2.95;;;21.60;99.90;;;;;;5087202;28;20032;-49
2022/08/20 11:05:42;;;;;;;8.80;1.80;;;21.50;99.90;;;;;;5085702;28;20040;-49
2022/08/20 11:08:08;;;;;;;8.10;1.70;;;21.30;99.90;;;;;;5080744;28;20045;-49
2022/08/20 11:10:35;;;;;;;6.93;1.48;;;21.30;99.90;;;;;;5081487;28;20488;-50
2022/08/20 11:13:04;;;;;;;8.95;2.00;;;21.80;99.90;;;;;;5080348;28;20052;-49
2022/08/20 11:15:32;;;;;;;8.43;1.55;;;22.00;99.90;;;;;;5081688;28;20068;-49
2022/08/20 11:17:58;;;;;;;8.02;1.58;;;22.00;99.90;;;;;;5091123;28;20103;-51
2022/08/20 11:20:25;;;;;;;8.75;1.88;;;21.80;99.90;;;;;;5101322;28;20048;-49
2022/08/20 11:22:51;;;;;;;6.57;1.83;;;21.80;99.90;;;;;;5101820;28;20118;-49
2022/08/20 11:25:18;;;;;;;6.82;1.70;;;21.50;99.70;;;;;;5100406;28;20048;-51
2022/08/20 11:27:46;;;;;;;10.20;2.05;;;21.60;99.90;;;;;;5101605;28;20096;-51
2022/08/20 11:30:22;;;;;;;8.07;1.52;;;21.60;99.90;;;;;;5098877;28;20060;-49
2022/08/20 11:32:47;;;;;;;7.93;1.80;;;21.60;99.90;;;;;;5099920;28;20478;-49
2022/08/20 11:35:13;;;;;;;8.18;1.85;;;21.90;99.90;;;;;;5099330;28;20036;-49
2022/08/20 11:37:39;;;;;;;7.60;1.75;;;22.10;99.90;;;;;;5100844;28;20040;-49
2022/08/20 11:40:07;;;;;;;8.77;1.55;;;22.30;99.90;;;;;;5099051;28;20047;-49
2022/08/20 11:42:33;;;;;;;8.13;1.30;;;22.40;99.00;;;;;;5099344;28;20097;-49
2022/08/20 11:44:59;;;;;;;6.03;1.50;;;22.70;99.80;;;;;;5101468;28;20448;-52
2022/08/20 11:47:28;;;;;;;8.90;1.60;;;22.80;98.30;;;;;;5098322;28;20072;-49
2022/08/20 11:50:06;;;;;;;8.63;1.70;;;22.90;96.80;;;;;;5100969;28;20134;-49
2022/08/20 11:52:32;;;;;;;16.92;7.80;;;22.80;96.20;;;;;;5100847;28;20107;-48
2022/08/20 11:54:58;;;;;;;7.18;1.85;;;23.20;98.30;;;;;;5100233;28;20036;-49
2022/08/20 11:57:27;;;;;;;9.25;1.90;;;23.00;96.90;;;;;;5100555;28;20048;-49
2022/08/20 11:59:55;;;;;;;6.07;1.42;;;23.40;97.10;;;;;;5099498;28;20042;-51
2022/08/20 12:02:21;;;;;;;7.90;1.65;;;23.30;96.30;;;;;;5099393;28;20087;-50
2022/08/20 12:04:47;;;;;;;9.60;1.90;;;23.40;96.80;;;;;;5099977;28;20410;-50
2022/08/20 12:07:19;;;;;;;8.60;1.90;;;23.20;97.00;;;;;;5100498;28;20044;-48
2022/08/20 12:09:46;;;;;;;7.38;1.88;;;23.10;96.10;;;;;;5100541;28;20116;-49
2022/08/20 12:12:12;;;;;;;6.68;1.80;;;23.10;95.80;;;;;;5099937;28;20044;-52
2022/08/20 12:14:37;;;;;;;10.07;2.85;;;23.20;96.70;;;;;;5100793;28;20036;-49
2022/08/20 12:17:11;;;;;;;11.40;2.28;;;23.40;95.90;;;;;;5098891;28;20055;-50
2022/08/20 12:19:41;;;;;;;7.70;1.95;;;23.20;96.30;;;;;;5099953;28;20036;-49
2022/08/20 12:22:08;;;;;;;6.90;1.60;;;23.00;96.40;;;;;;5099552;28;20047;-50
2022/08/20 12:24:34;;;;;;;8.15;1.50;;;23.20;96.10;;;;;;5100124;28;20052;-48
2022/08/20 12:27:09;;;;;;;7.72;2.20;;;23.70;96.60;;;;;;5100201;28;20044;-48
2022/08/20 12:29:37;;;;;;;8.60;1.75;;;23.50;94.80;;;;;;5099236;28;20044;-50
2022/08/20 12:32:05;;;;;;;8.05;1.85;;;23.90;95.80;;;;;;5100359;28;20036;-50
2022/08/20 12:34:32;;;;;;;8.27;2.03;;;23.90;95.20;;;;;;5099059;28;20066;-51
2022/08/20 12:37:20;;;;;;;7.38;1.63;;;23.80;95.40;;;;;;5100467;28;20040;-49
2022/08/20 12:39:48;;;;;;;7.85;1.92;;;23.90;95.90;;;;;;5086260;28;20051;-48
2022/08/20 12:42:14;;;;;;;6.07;1.95;;;23.40;95.50;;;;;;5089173;28;20032;-49
2022/08/20 12:44:42;;;;;;;8.00;1.58;;;23.30;95.50;;;;;;5094090;28;20475;-49
2022/08/20 12:47:08;;;;;;;9.80;1.90;;;23.40;96.30;;;;;;5097168;28;20032;-52
2022/08/20 12:49:34;;;;;;;7.88;1.75;;;23.20;96.40;;;;;;5099980;28;20117;-49
2022/08/20 12:52:00;;;;;;;11.38;1.92;;;22.90;96.50;;;;;;5098555;28;20093;-48
2022/08/20 12:54:26;;;;;;;8.60;2.00;;;22.70;96.30;;;;;;5099467;28;20040;-50